Time;durP1;ratioP1;P1;durP2;ratioP2;P2;SDS_P1;SDS_P2;PMS_P1;PMS_P2;Temp;Humidity;BMP_temperature;BMP_pressure;BME280_temperature;BME280_humidity;BME280_pressure;Samples;Min_cycle;Max_cycle;Signal;HPM_P1;HPM_P2
2023/02/20 00:00:17;;;;;;;;;;;;;;;-144.99;96.54;52545.94;5068526;28;19971;-74
2023/02/20 00:02:45;;;;;;;;;;;;;;;-144.99;96.59;52501.09;5068974;28;20034;-75
2023/02/20 00:05:12;;;;;;;;;;;;;;;-144.99;96.94;52558.16;5069067;28;19995;-76
2023/02/20 00:07:38;;;;;;;;;;;;;;;-144.99;97.19;52497.00;5077027;28;19940;-76
2023/02/20 00:10:06;;;;;;;;;;;;;;;-144.99;96.48;52468.47;5086001;28;19963;-74
2023/02/20 00:12:34;;;;;;;;;;;;;;;-144.99;97.42;52503.13;5084296;28;20255;-72
2023/02/20 00:15:00;;;;;;;;;;;;;;;-144.99;97.14;52515.34;5079406;28;19947;-73
2023/02/20 00:17:27;;;;;;;;;;;;;;;-144.99;97.66;52513.31;5071847;28;19943;-74
2023/02/20 00:19:53;;;;;;;;;;;;;;;-144.99;97.46;52529.63;5073205;28;20011;-75
2023/02/20 00:22:21;;;;;;;;;;;;;;;-144.99;97.34;52566.31;5071899;28;19968;-75
2023/02/20 00:24:48;;;;;;;;;;;;;;;-144.99;96.59;52521.47;5071713;28;19946;-74
2023/02/20 00:27:14;;;;;;;;;;;;;;;-144.99;95.99;52509.25;5069137;28;19939;-72
2023/02/20 00:29:43;;;;;;;;;;;;;;;-144.99;94.93;52550.00;5066475;28;19992;-72
2023/02/20 00:32:10;;;;;;;;;;;;;;;-144.99;95.42;52527.59;5073661;28;19957;-71
2023/02/20 00:34:37;;;;;;;;;;;;;;;-144.99;95.25;52509.25;5070776;28;19990;-68
2023/02/20 00:37:03;;;;;;;;;;;;;;;-144.99;96.07;52556.13;5071017;28;20112;-69
2023/02/20 00:39:31;;;;;;;;;;;;;;;-144.99;95.88;52543.91;5069806;28;20020;-70
2023/02/20 00:41:57;;;;;;;;;;;;;;;-144.99;95.39;52515.34;5085645;28;19960;-69
2023/02/20 00:44:24;;;;;;;;;;;;;;;-144.99;95.61;52529.63;5088689;28;19965;-69
2023/02/20 00:46:52;;;;;;;;;;;;;;;-144.99;95.83;52529.63;5086081;28;20381;-69
2023/02/20 00:49:19;;;;;;;;;;;;;;;-144.99;97.08;52521.47;5084169;28;20331;-68
2023/02/20 00:51:45;;;;;;;;;;;;;;;-144.99;97.74;52517.41;5073906;28;19954;-68
2023/02/20 00:54:12;;;;;;;;;;;;;;;-144.99;98.18;52562.25;5073255;28;19949;-68
2023/02/20 00:56:39;;;;;;;;;;;;;;;-144.99;97.88;52503.13;5070147;28;19925;-68
2023/02/20 00:59:05;;;;;;;;;;;;;;;-144.99;97.08;52562.25;5070422;28;20018;-67
2023/02/20 01:01:32;;;;;;;;;;;;;;;-144.99;96.99;52521.47;5066995;28;20002;-67
2023/02/20 01:04:00;;;;;;;;;;;;;;;-144.99;97.18;52521.47;5070924;28;19948;-67
2023/02/20 01:06:26;;;;;;;;;;;;;;;-144.99;96.91;52525.56;5080793;28;19941;-67
2023/02/20 01:08:53;;;;;;;;;;;;;;;-144.99;96.96;52509.25;5086273;28;19962;-67
2023/02/20 01:11:19;;;;;;;;;;;;;;;-144.99;96.10;52525.56;5079328;28;20500;-66
2023/02/20 01:13:46;;;;;;;;;;;;;;;-144.99;96.05;52525.56;5084755;28;19939;-69
2023/02/20 01:16:13;;;;;;;;;;;;;;;-144.99;95.85;52523.50;5069800;28;19942;-69
2023/02/20 01:18:39;;;;;;;;;;;;;;;-144.99;96.24;52519.44;5069840;28;19936;-71
2023/02/20 01:21:07;;;;;;;;;;;;;;;-144.99;95.62;52533.69;5068645;28;19928;-71
2023/02/20 01:23:34;;;;;;;;;;;;;;;-144.99;95.45;52533.69;5068433;28;19946;-71
2023/02/20 01:26:00;;;;;;;;;;;;;;;-144.99;95.20;52505.16;5070313;28;19947;-70
2023/02/20 01:28:27;;;;;;;;;;;;;;;-144.99;94.59;52523.50;5059561;28;19966;-69
2023/02/20 01:30:53;;;;;;;;;;;;;;;-144.99;94.71;52482.75;5064565;28;19955;-69
2023/02/20 01:33:20;;;;;;;;;;;;;;;-144.99;94.23;52517.41;5067695;28;19947;-70
2023/02/20 01:35:47;;;;;;;;;;;;;;;-144.99;94.53;52501.09;5085694;28;19947;-69
2023/02/20 01:38:15;;;;;;;;;;;;;;;-144.99;94.48;52501.09;5088605;28;19940;-70
2023/02/20 01:40:46;;;;;;;;;;;;;;;-144.99;95.04;52513.31;5065761;28;19962;-70
2023/02/20 01:43:13;;;;;;;;;;;;;;;-144.99;95.09;52529.63;5070240;28;19939;-70
2023/02/20 01:45:40;;;;;;;;;;;;;;;-144.99;95.64;52531.66;5067371;28;20656;-70
2023/02/20 01:48:06;;;;;;;;;;;;;;;-144.99;95.23;52501.09;5066799;28;19945;-70
2023/02/20 01:50:35;;;;;;;;;;;;;;;-144.99;95.55;52517.41;5062300;28;19956;-70
2023/02/20 01:53:06;;;;;;;;;;;;;;;-144.99;94.91;52509.25;5069383;28;20038;-70
2023/02/20 01:55:38;;;;;;;;;;;;;;;-144.99;94.88;52501.09;5067703;28;21203;-69
2023/02/20 01:58:06;;;;;;;;;;;;;;;-144.99;96.19;52513.31;5068043;28;20398;-69
2023/02/20 02:00:33;;;;;;;;;;;;;;;-144.99;96.10;52505.16;5068993;28;19977;-70
2023/02/20 02:03:02;;;;;;;;;;;;;;;-144.99;96.44;52554.09;5068887;28;19945;-71
2023/02/20 02:05:29;;;;;;;;;;;;;;;-144.99;96.28;52566.31;5062520;28;20397;-70
2023/02/20 02:07:56;;;;;;;;;;;;;;;-144.99;96.45;52480.72;5068712;28;19992;-70
2023/02/20 02:10:25;;;;;;;;;;;;;;;-144.99;96.97;52501.09;5063222;28;19929;-71
2023/02/20 02:12:53;;;;;;;;;;;;;;;-144.99;96.72;52509.25;5069146;28;20376;-71
2023/02/20 02:15:21;;;;;;;;;;;;;;;-144.99;96.43;52503.13;5067525;28;19941;-71
2023/02/20 02:18:01;;;;;;;;;;;;;;;-144.99;96.06;52521.47;5068652;28;19942;-70
2023/02/20 02:20:46;;;;;;;;;;;;;;;-144.99;95.92;52517.41;5063081;28;20014;-71
2023/02/20 02:23:46;;;;;;;;;;;;;;;-144.99;95.62;52541.84;5068619;28;20452;-65
2023/02/20 02:26:25;;;;;;;;;;;;;;;-144.99;95.65;52533.69;5064322;28;19950;-67
2023/02/20 02:29:10;;;;;;;;;;;;;;;-144.99;95.77;52523.50;5066869;28;19947;-69
2023/02/20 02:31:58;;;;;;;;;;;;;;;-144.99;96.64;52509.25;5071080;28;19958;-69
2023/02/20 02:34:39;;;;;;;;;;;;;;;-144.99;96.27;52490.91;5070503;28;19996;-69
2023/02/20 02:37:12;;;;;;;;;;;;;;;-144.99;96.50;52484.78;5068291;28;19947;-68
2023/02/20 02:39:44;;;;;;;;;;;;;;;-144.99;96.45;52488.84;4776419;28;10000223;-68
2023/02/20 02:42:15;;;;;;;;;;;;;;;-144.99;96.28;52484.78;5064185;28;19960;-69
2023/02/20 02:44:45;;;;;;;;;;;;;;;-144.99;97.54;52494.97;5066788;28;20412;-70
2023/02/20 02:47:13;;;;;;;;;;;;;;;-144.99;98.23;52501.09;5068958;28;20340;-70
2023/02/20 02:49:46;;;;;;;;;;;;;;;-144.99;98.16;52501.09;5069779;28;19944;-70
2023/02/20 02:52:37;;;;;;;;;;;;;;;-144.99;98.35;52488.84;5069695;28;19950;-71
2023/02/20 02:55:01;;;;;;;;;;;;;;;-144.99;98.34;52513.31;5065702;28;20419;-71
2023/02/20 02:57:28;;;;;;;;;;;;;;;-144.99;98.16;52505.16;5071727;28;19958;-70
2023/02/20 02:59:56;;;;;;;;;;;;;;;-144.99;98.03;52505.16;5071515;28;20067;-77
2023/02/20 03:02:25;;;;;;;;;;;;;;;-144.99;98.96;52499.06;5072088;28;20421;-77
2023/02/20 03:04:53;;;;;;;;;;;;;;;-144.99;99.34;52509.25;5067743;28;19939;-74
2023/02/20 03:07:22;;;;;;;;;;;;;;;-144.99;99.70;52513.31;5071791;28;19939;-76
2023/02/20 03:09:52;;;;;;;;;;;;;;;-144.99;99.85;52525.56;5067425;28;19959;-73
2023/02/20 03:12:19;;;;;;;;;;;;;;;-144.99;99.50;52515.34;5070201;28;20012;-73
2023/02/20 03:17:32;;;;;;;;;;;;;;;-144.99;98.67;52492.94;5070486;28;20307;-73
2023/02/20 03:20:00;;;;;;;;;;;;;;;-144.99;98.73;52484.78;5077963;28;19958;-77
2023/02/20 03:22:30;;;;;;;;;;;;;;;-144.99;98.68;52529.63;5089582;28;19956;-75
2023/02/20 03:25:00;;;;;;;;;;;;;;;-144.99;97.71;52519.44;5085458;28;19949;-76
2023/02/20 03:27:29;;;;;;;;;;;;;;;-144.99;98.21;52497.00;5084057;28;19938;-73
2023/02/20 03:29:58;;;;;;;;;;;;;;;-144.99;98.05;52460.31;5084399;28;19966;-75
2023/02/20 03:43:29;;;;;;;;;;;;;;;-144.99;97.97;52484.78;5067241;28;19948;-72
2023/02/20 03:46:01;;;;;;;;;;;;;;;-144.99;99.27;52525.56;5069766;28;19958;-70
2023/02/20 03:48:31;;;;;;;;;;;;;;;-144.99;98.95;52503.13;5065923;28;19960;-69
2023/02/20 03:53:44;;;;;;;;;;;;;;;-144.99;98.76;52497.00;5069955;28;19939;-70
2023/02/20 03:56:13;;;;;;;;;;;;;;;-144.99;99.11;52497.00;5068731;28;19939;-69
2023/02/20 03:58:42;;;;;;;;;;;;;;;-144.99;98.67;52464.41;5067391;28;19928;-70
2023/02/20 04:01:11;;;;;;;;;;;;;;;-144.99;96.98;52545.94;5067705;28;19955;-70
2023/02/20 04:03:39;;;;;;;;;;;;;;;-144.99;97.29;52484.78;5069878;28;19942;-70
2023/02/20 04:06:08;;;;;;;;;;;;;;;-144.99;96.78;52484.78;5069902;28;19939;-70
2023/02/20 04:08:37;;;;;;;;;;;;;;;-144.99;97.90;52509.25;5069841;28;19924;-71
2023/02/20 04:11:07;;;;;;;;;;;;;;;-144.99;97.98;52509.25;5067602;28;20351;-70
2023/02/20 04:13:34;;;;;;;;;;;;;;;-144.99;97.69;52529.63;5070219;28;19934;-70
2023/02/20 04:16:02;;;;;;;;;;;;;;;-144.99;98.56;52517.41;5068037;28;20008;-70
2023/02/20 04:18:29;;;;;;;;;;;;;;;-144.99;96.15;52497.00;5064255;28;19938;-72
2023/02/20 04:20:57;;;;;;;;;;;;;;;-144.99;96.91;52505.16;5066414;28;19924;-71
2023/02/20 04:23:26;;;;;;;;;;;;;;;-144.99;97.20;52486.81;5070676;28;19954;-71
2023/02/20 04:25:54;;;;;;;;;;;;;;;-144.99;98.68;52521.47;5070466;28;19932;-71
2023/02/20 04:28:23;;;;;;;;;;;;;;;-144.99;99.05;52488.84;5069956;28;20049;-69
2023/02/20 04:30:50;;;;;;;;;;;;;;;-144.99;98.63;52521.47;5064977;28;20021;-68
2023/02/20 04:33:18;;;;;;;;;;;;;;;-144.99;98.22;52505.16;5066618;28;19953;-68
2023/02/20 04:35:44;;;;;;;;;;;;;;;-144.99;99.02;52488.84;5069702;28;19973;-68
2023/02/20 04:38:11;;;;;;;;;;;;;;;-144.99;99.29;52460.31;5069481;28;20226;-68
2023/02/20 04:40:38;;;;;;;;;;;;;;;-144.99;98.59;52494.97;5067294;28;20005;-68
2023/02/20 04:43:05;;;;;;;;;;;;;;;-144.99;99.14;52497.00;5066645;28;20442;-68
2023/02/20 04:45:33;;;;;;;;;;;;;;;-144.99;99.66;52525.56;5069557;28;19928;-65
2023/02/20 04:48:00;;;;;;;;;;;;;;;-144.99;99.93;52505.16;5069413;28;19962;-72
2023/02/20 04:50:28;;;;;;;;;;;;;;;-144.99;99.20;52509.25;5068014;28;19963;-71
2023/02/20 04:52:54;;;;;;;;;;;;;;;-144.99;98.96;52458.28;5069394;28;19943;-72
2023/02/20 04:55:21;;;;;;;;;;;;;;;-144.99;98.66;52513.31;5069465;28;19950;-71
2023/02/20 04:57:48;;;;;;;;;;;;;;;-144.99;99.05;52486.81;5069011;28;20707;-72
2023/02/20 05:00:16;;;;;;;;;;;;;;;-144.99;99.30;52484.78;5071414;28;19962;-73
2023/02/20 05:02:44;;;;;;;;;;;;;;;-144.99;99.22;52525.56;5069098;28;20012;-72
2023/02/20 05:05:16;;;;;;;;;;;;;;;-144.99;98.91;52509.25;5072463;28;20431;-72
2023/02/20 05:07:42;;;;;;;;;;;;;;;-144.99;100.00;52513.31;5072893;28;19932;-72
2023/02/20 05:10:09;;;;;;;;;;;;;;;-144.99;100.00;52497.00;5066972;28;19931;-72
2023/02/20 05:12:36;;;;;;;;;;;;;;;-144.99;100.00;52505.16;5071189;28;19932;-72
2023/02/20 05:15:02;;;;;;;;;;;;;;;-144.99;100.00;52509.25;5073118;28;19943;-72
2023/02/20 05:17:29;;;;;;;;;;;;;;;-144.99;99.92;52545.94;5073507;28;19946;-75
2023/02/20 05:19:57;;;;;;;;;;;;;;;-144.99;100.00;52503.13;5079218;28;19954;-75
2023/02/20 05:22:23;;;;;;;;;;;;;;;-144.99;98.89;52507.19;5092286;28;19983;-75
2023/02/20 05:24:50;;;;;;;;;;;;;;;-144.99;98.06;52488.84;5082870;28;19945;-75
2023/02/20 05:27:18;;;;;;;;;;;;;;;-144.99;99.25;52525.56;5069681;28;20015;-76
2023/02/20 05:29:45;;;;;;;;;;;;;;;-144.99;99.54;52497.00;5063337;28;19930;-77
2023/02/20 05:32:12;;;;;;;;;;;;;;;-144.99;99.69;52509.25;5068690;28;19996;-76
2023/02/20 05:34:39;;;;;;;;;;;;;;;-144.99;100.00;52505.16;5064982;28;19950;-76
2023/02/20 05:37:07;;;;;;;;;;;;;;;-144.99;100.00;52503.13;5069725;28;19960;-76
2023/02/20 05:39:33;;;;;;;;;;;;;;;-144.99;99.90;52488.84;5067298;28;19939;-76
2023/02/20 05:42:00;;;;;;;;;;;;;;;-144.99;100.00;52499.06;5066524;28;20403;-76
2023/02/20 05:44:27;;;;;;;;;;;;;;;-144.99;100.00;52492.94;5066667;28;19979;-76
2023/02/20 05:46:54;;;;;;;;;;;;;;;-144.99;100.00;52480.72;5063162;28;19946;-76
2023/02/20 05:49:20;;;;;;;;;;;;;;;-144.99;100.00;52484.78;5062483;28;19941;-77
2023/02/20 05:51:49;;;;;;;;;;;;;;;-144.99;100.00;52537.78;5067536;28;20499;-77
2023/02/20 05:54:17;;;;;;;;;;;;;;;-144.99;99.67;52480.72;5088531;22;19961;-77
2023/02/20 05:56:44;;;;;;;;;;;;;;;-144.99;99.67;52513.31;5081173;28;20720;-76
2023/02/20 05:59:11;;;;;;;;;;;;;;;-144.99;100.00;52550.00;5076773;28;19996;-80
2023/02/20 06:01:37;;;;;;;;;;;;;;;-144.99;100.00;52486.81;5083489;28;20046;-77
2023/02/20 06:04:04;;;;;;;;;;;;;;;-144.99;100.00;52488.84;5066405;28;19968;-79
2023/02/20 06:06:34;;;;;;;;;;;;;;;-144.99;100.00;52523.50;5057794;28;20331;-75
2023/02/20 06:09:01;;;;;;;;;;;;;;;-144.99;100.00;52501.09;5061069;28;20403;-74
2023/02/20 06:11:29;;;;;;;;;;;;;;;-144.99;100.00;52521.47;5063626;28;19925;-77
2023/02/20 06:13:55;;;;;;;;;;;;;;;-144.99;100.00;52484.78;5066981;28;19955;-79
2023/02/20 06:16:23;;;;;;;;;;;;;;;-144.99;100.00;52529.63;5067193;28;20382;-78
2023/02/20 06:18:49;;;;;;;;;;;;;;;-144.99;100.00;52509.25;5063301;28;19939;-77
2023/02/20 06:21:16;;;;;;;;;;;;;;;-144.99;100.00;52497.00;5063431;28;19961;-77
2023/02/20 06:23:44;;;;;;;;;;;;;;;-144.99;100.00;52492.94;5054765;28;19961;-75
2023/02/20 06:26:12;;;;;;;;;;;;;;;-144.99;99.74;52470.50;5059240;28;19941;-77
2023/02/20 06:28:40;;;;;;;;;;;;;;;-144.99;100.00;52509.25;5061455;28;19955;-77
2023/02/20 06:31:07;;;;;;;;;;;;;;;-144.99;100.00;52533.69;5050778;28;19929;-78
2023/02/20 06:33:34;;;;;;;;;;;;;;;-144.99;100.00;52470.50;5063649;28;19951;-79
2023/02/20 06:36:00;;;;;;;;;;;;;;;-144.99;100.00;52480.72;5063184;28;19942;-75
2023/02/20 06:38:27;;;;;;;;;;;;;;;-144.99;100.00;52468.47;5082445;28;19944;-86
2023/02/20 06:40:54;;;;;;;;;;;;;;;-144.99;100.00;52497.00;5083517;28;19937;-78
2023/02/20 06:43:20;;;;;;;;;;;;;;;-144.99;100.00;52452.16;5056149;28;19954;-76
2023/02/20 06:45:48;;;;;;;;;;;;;;;-144.99;100.00;52492.94;5061081;28;19936;-78
2023/02/20 06:48:16;;;;;;;;;;;;;;;-144.99;100.00;52488.84;5060852;28;20194;-81
2023/02/20 06:50:42;;;;;;;;;;;;;;;-144.99;100.00;52468.47;5060458;28;19928;-80
2023/02/20 06:53:09;;;;;;;;;;;;;;;-144.99;100.00;52466.44;5065370;28;19959;-81
2023/02/20 06:55:36;;;;;;;;;;;;;;;-144.99;100.00;52503.13;5060187;28;19949;-79
2023/02/20 06:58:02;;;;;;;;;;;;;;;-144.99;100.00;52507.19;5059005;28;19938;-77
2023/02/20 07:00:29;;;;;;;;;;;;;;;-144.99;100.00;52501.09;5054811;28;20721;-78
2023/02/20 07:02:57;;;;;;;;;;;;;;;-144.99;100.00;52521.47;5063456;28;20057;-79
2023/02/20 07:05:23;;;;;;;;;;;;;;;-144.99;100.00;52478.66;5061176;28;19935;-81
2023/02/20 07:07:50;;;;;;;;;;;;;;;-144.99;100.00;52484.78;5050899;28;19937;-75
2023/02/20 07:10:17;;;;;;;;;;;;;;;-144.99;100.00;52490.91;5060914;28;19950;-77
2023/02/20 07:12:43;;;;;;;;;;;;;;;-144.99;100.00;52488.84;5071743;28;19940;-86
2023/02/20 07:15:11;;;;;;;;;;;;;;;-144.99;100.00;52468.47;5080176;28;19942;-79
2023/02/20 07:17:38;;;;;;;;;;;;;;;-144.99;100.00;52488.84;5061010;28;19939;-76
2023/02/20 07:20:06;;;;;;;;;;;;;;;-144.99;100.00;52490.91;5058471;28;19932;-78
2023/02/20 07:22:33;;;;;;;;;;;;;;;-144.99;100.00;52466.44;5057649;28;19965;-80
2023/02/20 07:25:00;;;;;;;;;;;;;;;-144.99;100.00;52488.84;5066554;28;19962;-78
2023/02/20 07:27:26;;;;;;;;;;;;;;;-144.99;100.00;52484.78;5062246;28;19970;-79
2023/02/20 07:29:53;;;;;;;;;;;;;;;-144.99;100.00;52476.63;5066142;28;19931;-77
2023/02/20 07:32:22;;;;;;;;;;;;;;;-144.99;100.00;52505.16;5062352;28;20016;-78
2023/02/20 07:34:48;;;;;;;;;;;;;;;-144.99;100.00;52452.16;5062572;28;19955;-80
2023/02/20 07:37:16;;;;;;;;;;;;;;;-144.99;100.00;52450.13;5058507;28;20272;-79
2023/02/20 07:39:43;;;;;;;;;;;;;;;-144.99;100.00;52458.28;5057330;28;19969;-74
2023/02/20 07:42:10;;;;;;;;;;;;;;;-144.99;100.00;52464.41;5062476;28;19975;-78
2023/02/20 07:44:36;;;;;;;;;;;;;;;-144.99;100.00;52497.00;5069816;28;20312;-79
2023/02/20 07:47:03;;;;;;;;;;;;;;;-144.99;100.00;52507.19;5079239;28;19947;-86
2023/02/20 07:49:29;;;;;;;;;;;;;;;-144.99;100.00;52468.47;5072128;28;19964;-77
2023/02/20 07:51:56;;;;;;;;;;;;;;;-144.99;100.00;52497.00;5065545;28;20429;-77
2023/02/20 07:54:25;;;;;;;;;;;;;;;-144.99;100.00;52501.09;5058288;28;19964;-80
2023/02/20 07:56:52;;;;;;;;;;;;;;;-144.99;100.00;52513.31;5058046;28;20025;-78
2023/02/20 07:59:19;;;;;;;;;;;;;;;-144.99;100.00;52484.78;5060891;28;19961;-79
2023/02/20 08:01:46;;;;;;;;;;;;;;;-144.99;100.00;52497.00;5058068;28;19945;-80
2023/02/20 08:04:12;;;;;;;;;;;;;;;-144.99;100.00;52472.56;5052018;28;19963;-77
2023/02/20 08:06:39;;;;;;;;;;;;;;;-144.99;100.00;52435.88;5054142;28;20457;-78
2023/02/20 08:09:05;;;;;;;;;;;;;;;-144.99;100.00;52484.78;5053017;28;20551;-79
2023/02/20 08:11:35;;;;;;;;;;;;;;;-144.99;100.00;52486.81;5061936;28;19936;-74
2023/02/20 08:14:02;;;;;;;;;;;;;;;-144.99;100.00;52497.00;5054460;28;19960;-76
2023/02/20 08:16:28;;;;;;;;;;;;;;;-144.99;100.00;52484.78;5059297;28;20149;-76
2023/02/20 08:18:55;;;;;;;;;;;;;;;-144.99;100.00;52497.00;5060652;28;19965;-75
2023/02/20 08:21:21;;;;;;;;;;;;;;;-144.99;100.00;52484.78;5061851;28;19948;-82
2023/02/20 08:23:48;;;;;;;;;;;;;;;-144.99;100.00;52478.66;5054209;28;19955;-79
2023/02/20 08:26:15;;;;;;;;;;;;;;;-144.99;100.00;52480.72;5055515;28;19938;-81
2023/02/20 08:28:43;;;;;;;;;;;;;;;-144.99;100.00;52464.41;5055890;28;19939;-81
2023/02/20 08:31:09;;;;;;;;;;;;;;;-144.99;100.00;52435.88;5060477;28;20650;-80
2023/02/20 08:33:36;;;;;;;;;;;;;;;-144.99;100.00;52513.31;5059776;28;19960;-80
2023/02/20 08:36:03;;;;;;;;;;;;;;;-144.99;100.00;52470.50;5057851;28;19963;-78
2023/02/20 08:38:30;;;;;;;;;;;;;;;-144.99;100.00;52448.09;5054300;28;20079;-77
2023/02/20 08:40:57;;;;;;;;;;;;;;;-144.99;100.00;52480.72;5056792;28;19948;-79
2023/02/20 08:43:24;;;;;;;;;;;;;;;-144.99;100.00;52456.25;5062835;28;19955;-78
2023/02/20 08:45:52;;;;;;;;;;;;;;;-144.99;100.00;52435.88;5065467;28;19957;-79
2023/02/20 08:48:19;;;;;;;;;;;;;;;-144.99;100.00;52456.25;5061251;28;20014;-78
2023/02/20 08:50:46;;;;;;;;;;;;;;;-144.99;100.00;52452.16;5061603;28;19945;-78
2023/02/20 08:53:12;;;;;;;;;;;;;;;-144.99;100.00;52464.41;5069383;28;20016;-79
2023/02/20 08:55:39;;;;;;;;;;;;;;;-144.99;100.00;52476.63;5078889;28;19928;-85
2023/02/20 08:58:05;;;;;;;;;;;;;;;-144.99;100.00;52509.25;5081271;28;19933;-77
2023/02/20 09:00:32;;;;;;;;;;;;;;;-144.99;100.00;52444.03;5059040;28;20451;-78
2023/02/20 09:03:00;;;;;;;;;;;;;;;-144.99;100.00;52460.31;5067627;28;20016;-78
2023/02/20 09:05:26;;;;;;;;;;;;;;;-144.99;100.00;52448.09;5066351;28;20009;-78
2023/02/20 09:07:53;;;;;;;;;;;;;;;-144.99;100.00;52439.94;5064079;28;19950;-79
2023/02/20 09:10:20;;;;;;;;;;;;;;;-144.99;100.00;52452.16;5060396;28;19942;-78
2023/02/20 09:12:47;;;;;;;;;;;;;;;-144.99;100.00;52472.56;5060285;28;19929;-77
2023/02/20 09:15:16;;;;;;;;;;;;;;;-144.99;100.00;52503.13;5059598;28;20012;-79
2023/02/20 09:17:43;;;;;;;;;;;;;;;-144.99;100.00;52476.63;5061615;28;20356;-77
2023/02/20 09:20:12;;;;;;;;;;;;;;;-144.99;100.00;52460.31;5059407;28;19943;-78
2023/02/20 09:22:38;;;;;;;;;;;;;;;-144.99;100.00;52509.25;5057160;28;19934;-79
2023/02/20 09:25:05;;;;;;;;;;;;;;;-144.99;100.00;52456.25;5056205;28;19967;-77
2023/02/20 09:27:32;;;;;;;;;;;;;;;-144.99;100.00;52464.41;5066576;28;19983;-76
2023/02/20 09:29:58;;;;;;;;;;;;;;;-144.99;100.00;52472.56;5075464;28;19942;-84
2023/02/20 09:32:25;;;;;;;;;;;;;;;-144.99;100.00;52458.28;5077789;28;19948;-79
2023/02/20 09:34:52;;;;;;;;;;;;;;;-144.99;100.00;52435.88;5070631;28;20149;-79
2023/02/20 09:37:20;;;;;;;;;;;;;;;-144.99;100.00;52456.25;5065876;28;19939;-79
2023/02/20 09:39:46;;;;;;;;;;;;;;;-144.99;100.00;52468.47;5061870;28;20445;-76
2023/02/20 09:42:20;;;;;;;;;;;;;;;-144.99;100.00;52480.72;5064872;28;20035;-76
2023/02/20 09:44:50;;;;;;;;;;;;;;;-144.99;100.00;52507.19;5063910;28;19928;-80
2023/02/20 09:47:26;;;;;;;;;;;;;;;-144.99;100.00;52468.47;5064316;28;19981;-79
2023/02/20 09:49:53;;;;;;;;;;;;;;;-144.99;100.00;52492.94;5057335;28;20019;-76
2023/02/20 09:52:22;;;;;;;;;;;;;;;-144.99;100.00;52460.31;5062846;28;19974;-77
2023/02/20 09:54:51;;;;;;;;;;;;;;;-144.99;100.00;52446.06;5055801;28;20058;-78
2023/02/20 09:57:21;;;;;;;;;;;;;;;-144.99;100.00;52456.25;5063682;28;19958;-80
2023/02/20 09:59:48;;;;;;;;;;;;;;;-144.99;100.00;52480.72;5066648;28;19944;-83
2023/02/20 10:02:17;;;;;;;;;;;;;;;-144.99;100.00;52435.88;5062912;28;20017;-79
2023/02/20 10:04:45;;;;;;;;;;;;;;;-144.99;100.00;52435.88;5083861;28;19983;-84
2023/02/20 10:07:16;;;;;;;;;;;;;;;-144.99;100.00;52456.25;5071965;28;19948;-78
2023/02/20 10:09:44;;;;;;;;;;;;;;;-144.99;100.00;52435.88;5062312;28;19942;-80
2023/02/20 10:12:14;;;;;;;;;;;;;;;-144.99;100.00;52464.41;5065111;28;19942;-80
2023/02/20 10:14:48;;;;;;;;;;;;;;;-144.99;100.00;52470.50;5062071;28;20353;-78
2023/02/20 10:17:20;;;;;;;;;;;;;;;-144.99;100.00;52476.63;5064572;28;19945;-78
2023/02/20 10:19:50;;;;;;;;;;;;;;;-144.99;100.00;52444.03;5060758;28;20492;-77
2023/02/20 10:22:19;;;;;;;;;;;;;;;-144.99;100.00;52439.94;5063703;28;19978;-77
2023/02/20 10:24:54;;;;;;;;;;;;;;;-144.99;100.00;52460.31;5065340;28;19962;-77
2023/02/20 10:27:29;;;;;;;;;;;;;;;-144.99;100.00;52488.84;5060169;28;19957;-77
2023/02/20 10:29:57;;;;;;;;;;;;;;;-144.99;100.00;52460.31;5059393;28;19965;-80
2023/02/20 10:32:28;;;;;;;;;;;;;;;-144.99;100.00;52439.94;5060123;28;19947;-82
2023/02/20 10:34:57;;;;;;;;;;;;;;;-144.99;100.00;52460.31;5057632;28;19961;-78
2023/02/20 10:37:25;;;;;;;;;;;;;;;-144.99;100.00;52460.31;5061460;28;19948;-77
2023/02/20 10:39:58;;;;;;;;;;;;;;;-144.99;100.00;52444.03;5061843;28;19940;-77
2023/02/20 10:42:30;;;;;;;;;;;;;;;-144.99;100.00;52452.16;5054435;28;19987;-78
2023/02/20 10:44:58;;;;;;;;;;;;;;;-144.99;100.00;52448.09;5065928;28;19973;-78
2023/02/20 10:47:29;;;;;;;;;;;;;;;-144.99;100.00;52462.34;5058631;28;19939;-79
2023/02/20 10:49:57;;;;;;;;;;;;;;;-144.99;100.00;52444.03;5060906;28;19946;-79
2023/02/20 10:52:27;;;;;;;;;;;;;;;-144.99;100.00;52435.88;5062513;28;20225;-81
2023/02/20 10:54:55;;;;;;;;;;;;;;;-144.99;100.00;52456.25;5058216;28;20422;-80
2023/02/20 10:57:25;;;;;;;;;;;;;;;-144.99;100.00;52497.00;5059629;28;19945;-79
2023/02/20 10:59:54;;;;;;;;;;;;;;;-144.99;100.00;52444.03;5055816;28;19936;-78
2023/02/20 11:02:22;;;;;;;;;;;;;;;-144.99;100.00;52460.31;5056435;28;19951;-79
2023/02/20 11:04:52;;;;;;;;;;;;;;;-144.99;100.00;52480.72;5063385;28;20057;-78
2023/02/20 11:07:21;;;;;;;;;;;;;;;-144.99;100.00;52486.81;5059493;28;20480;-80
2023/02/20 11:09:47;;;;;;;;;;;;;;;-144.99;100.00;52472.56;5060557;28;20539;-79
2023/02/20 11:12:21;;;;;;;;;;;;;;;-144.99;100.00;52435.88;5083243;28;20001;-85
2023/02/20 11:14:49;;;;;;;;;;;;;;;-144.99;100.00;52444.03;5077059;28;19955;-82
2023/02/20 11:17:18;;;;;;;;;;;;;;;-144.99;100.00;52492.94;5061974;28;19947;-77
2023/02/20 11:19:45;;;;;;;;;;;;;;;-144.99;100.00;52462.34;5065208;28;19957;-79
2023/02/20 11:22:13;;;;;;;;;;;;;;;-144.99;100.00;52464.41;5056073;28;20361;-78
2023/02/20 11:24:40;;;;;;;;;;;;;;;-144.99;100.00;52476.63;5064532;28;19960;-79
2023/02/20 11:27:10;;;;;;;;;;;;;;;-144.99;100.00;52460.31;5054674;28;20813;-80
2023/02/20 11:29:40;;;;;;;;;;;;;;;-144.99;100.00;52437.91;5063829;28;19943;-79
2023/02/20 11:32:30;;;;;;;;;;;;;;;-144.99;100.00;52488.84;5063506;28;19996;-78
2023/02/20 11:35:21;;;;;;;;;;;;;;;-144.99;100.00;52480.72;5052255;28;20212;-80
2023/02/20 11:37:49;;;;;;;;;;;;;;;-144.99;100.00;52448.09;5040557;28;19939;-79
2023/02/20 11:40:17;;;;;;;;;;;;;;;-144.99;100.00;52439.94;5056821;28;19956;-79
2023/02/20 11:42:44;;;;;;;;;;;;;;;-144.99;100.00;52464.41;5071922;28;19964;-79
2023/02/20 11:45:16;;;;;;;;;;;;;;;-144.99;100.00;52431.78;5069451;28;19964;-84
2023/02/20 11:47:42;;;;;;;;;;;;;;;-144.99;100.00;52452.16;5073645;28;19962;-81
2023/02/20 11:50:10;;;;;;;;;;;;;;;-144.99;100.00;52456.25;5057772;28;19939;-77
2023/02/20 11:52:37;;;;;;;;;;;;;;;-144.99;100.00;52460.31;5064107;28;19940;-76
2023/02/20 11:55:11;;;;;;;;;;;;;;;-144.99;100.00;52417.53;5073313;22;19972;-75
2023/02/20 11:57:42;;;;;;;;;;;;;;;-144.99;100.00;52439.94;5066137;28;19936;-74
2023/02/20 12:00:13;;;;;;;;;;;;;;;-144.99;96.26;52415.47;5065479;28;20014;-74
2023/02/20 12:02:49;;;;;;;;;;;;;;;-144.99;94.55;52448.09;5060536;28;19942;-75
2023/02/20 12:05:16;;;;;;;;;;;;;;;-144.99;94.00;52444.03;5052964;28;20025;-74
2023/02/20 12:07:44;;;;;;;;;;;;;;;-144.99;94.12;52427.72;5049640;28;19940;-74
2023/02/20 12:10:19;;;;;;;;;;;;;;;-144.99;93.78;52431.78;5055951;28;19940;-76
2023/02/20 12:12:46;;;;;;;;;;;;;;;-144.99;92.83;52415.47;5051619;28;19949;-74
2023/02/20 12:15:14;;;;;;;;;;;;;;;-144.99;93.09;52466.44;5057804;28;20063;-75
2023/02/20 12:17:47;;;;;;;;;;;;;;;-144.99;92.30;52431.78;5058761;28;20338;-73
2023/02/20 12:20:17;;;;;;;;;;;;;;;-144.99;91.42;52431.78;5046119;28;19963;-74
2023/02/20 12:22:46;;;;;;;;;;;;;;;-144.99;91.83;52460.31;5056474;28;20003;-73
2023/02/20 12:25:18;;;;;;;;;;;;;;;-144.99;91.26;52439.94;5047846;28;20504;-74
2023/02/20 12:27:50;;;;;;;;;;;;;;;-144.99;91.27;52444.03;5040862;28;19941;-75
2023/02/20 12:30:26;;;;;;;;;;;;;;;-144.99;93.59;52458.28;5047541;28;19944;-73
2023/02/20 12:33:00;;;;;;;;;;;;;;;-144.99;92.19;52456.25;5043548;28;19974;-74
2023/02/20 12:35:32;;;;;;;;;;;;;;;-144.99;92.50;52458.28;5045889;28;19954;-72
2023/02/20 12:38:05;;;;;;;;;;;;;;;-144.99;95.28;52460.31;5044464;28;19948;-73
2023/02/20 12:40:37;;;;;;;;;;;;;;;-144.99;92.48;52456.25;5047676;28;19949;-74
2023/02/20 12:43:11;;;;;;;;;;;;;;;-144.99;92.61;52444.03;5053799;28;19965;-73